Time;durP1;ratioP1;P1;durP2;ratioP2;P2;SDS_P1;SDS_P2;PMS_P1;PMS_P2;Temp;Humidity;BMP_temperature;BMP_pressure;BME280_temperature;BME280_humidity;BME280_pressure;Samples;Min_cycle;Max_cycle;Signal;HPM_P1;HPM_P2
2023/07/12 00:00:32;;;;;;;5.70;3.55;;;;;;;20.54;81.38;100751.44;5094208;28;20101;-78
2023/07/12 00:02:59;;;;;;;4.20;3.80;;;;;;;20.39;82.50;100734.13;5090191;28;20080;-78
2023/07/12 00:05:28;;;;;;;6.25;3.38;;;;;;;20.37;82.36;100746.94;5109721;28;20393;-78
2023/07/12 00:07:56;;;;;;;4.80;3.55;;;;;;;20.40;81.57;100725.84;5076068;28;20095;-78
2023/07/12 00:10:26;;;;;;;6.22;4.50;;;;;;;20.46;82.22;100735.16;5076859;28;20012;-78
2023/07/12 00:12:57;;;;;;;4.28;3.60;;;;;;;20.32;82.11;100733.91;5081095;28;20115;-79
2023/07/12 00:15:26;;;;;;;4.43;3.80;;;;;;;20.27;82.26;100746.25;5094002;28;20051;-78
2023/07/12 00:17:54;;;;;;;4.47;3.72;;;;;;;20.24;82.72;100769.00;5075982;28;20411;-78
2023/07/12 00:20:33;;;;;;;6.45;4.28;;;;;;;20.25;82.71;100775.25;5075618;28;20475;-78
2023/07/12 00:23:00;;;;;;;4.28;3.88;;;;;;;20.32;83.24;100787.09;5080618;28;20031;-79
2023/07/12 00:25:29;;;;;;;5.47;4.95;;;;;;;20.28;82.40;100785.72;5113748;28;20030;-78
2023/07/12 00:27:55;;;;;;;7.13;5.22;;;;;;;20.20;82.74;100786.53;5096330;28;20036;-78
2023/07/12 00:30:27;;;;;;;4.93;4.45;;;;;;;20.16;82.97;100802.22;5114646;28;20028;-79
2023/07/12 00:32:55;;;;;;;5.22;4.63;;;;;;;19.83;82.78;100784.13;5094788;28;20046;-78
2023/07/12 00:35:29;;;;;;;5.38;4.80;;;;;;;19.94;82.25;100803.63;5093373;28;20063;-78
2023/07/12 00:37:57;;;;;;;6.70;4.40;;;;;;;19.78;83.29;100808.06;5075681;28;20057;-78
2023/07/12 00:40:38;;;;;;;5.55;5.05;;;;;;;19.78;83.04;100817.00;5074902;28;20037;-78
2023/07/12 00:43:29;;;;;;;6.70;4.75;;;;;;;19.74;81.99;100826.41;5106426;28;20032;-79
2023/07/12 00:45:56;;;;;;;5.45;4.55;;;;;;;19.67;80.65;100814.53;5065801;28;20036;-78
2023/07/12 00:48:22;;;;;;;7.80;4.40;;;;;;;19.71;82.59;100832.13;5092698;28;20483;-79
2023/07/12 00:50:48;;;;;;;6.68;4.32;;;;;;;19.67;80.93;100826.16;5092090;28;20107;-79
2023/07/12 00:53:20;;;;;;;6.97;4.82;;;;;;;19.54;80.86;100797.88;5074747;28;20038;-78
2023/07/12 00:55:59;;;;;;;8.85;5.18;;;;;;;19.72;80.19;100826.56;5075252;28;20411;-78
2023/07/12 00:58:32;;;;;;;7.63;5.20;;;;;;;19.57;79.61;100828.09;5091603;28;20127;-78
2023/07/12 01:01:02;;;;;;;7.90;4.60;;;;;;;19.63;79.99;100840.13;5093054;28;20443;-78
2023/07/12 01:03:35;;;;;;;6.32;5.15;;;;;;;19.42;80.35;100852.06;5074443;28;20028;-78
2023/07/12 01:06:01;;;;;;;7.22;5.00;;;;;;;19.46;79.73;100845.34;5093100;28;20056;-79
2023/07/12 01:08:41;;;;;;;6.57;4.95;;;;;;;19.43;78.82;100847.53;5092722;28;20084;-78
2023/07/12 01:11:13;;;;;;;6.40;5.28;;;;;;;19.24;79.26;100853.94;5091861;28;20421;-78
2023/07/12 01:13:42;;;;;;;7.07;5.20;;;;;;;19.31;80.26;100806.44;5091728;28;20024;-79
2023/07/12 01:16:08;;;;;;;;;;;;;;;19.52;78.68;100816.91;5093219;28;20024;-79
2023/07/12 01:18:37;;;;;;;8.00;5.47;;;;;;;19.27;79.54;100789.72;5074834;28;20041;-79
2023/07/12 01:21:27;;;;;;;7.43;5.70;;;;;;;19.36;80.46;100820.31;5074985;28;20364;-79
2023/07/12 01:23:55;;;;;;;6.55;5.22;;;;;;;19.24;80.08;100805.38;5074083;28;20032;-79
2023/07/12 01:26:39;;;;;;;14.40;6.47;;;;;;;19.25;80.32;100804.38;5092758;28;20027;-79
2023/07/12 01:29:06;;;;;;;17.70;8.20;;;;;;;19.38;81.03;100828.25;5092356;28;20104;-78
2023/07/12 01:31:34;;;;;;;6.97;5.70;;;;;;;19.18;81.94;100823.03;5074431;28;20024;-78
2023/07/12 01:34:02;;;;;;;9.00;5.93;;;;;;;19.07;83.04;100804.38;5073762;28;20058;-77
2023/07/12 01:36:29;;;;;;;11.10;5.73;;;;;;;19.09;83.17;100807.75;5068404;28;20504;-78
2023/07/12 01:38:58;;;;;;;7.32;6.10;;;;;;;18.95;84.29;100827.16;5047128;28;20725;-78
2023/07/12 01:41:23;;;;;;;10.38;5.85;;;;;;;18.98;84.80;100819.59;5050064;28;20510;-78
2023/07/12 01:43:49;;;;;;;9.85;5.95;;;;;;;18.92;85.53;100795.13;5040707;28;20028;-77
2023/07/12 01:46:15;;;;;;;8.55;5.57;;;;;;;18.99;87.04;100783.56;5051178;28;20103;-78
2023/07/12 01:48:40;;;;;;;8.00;6.15;;;;;;;19.08;86.06;100779.09;5062167;28;20434;-78
2023/07/12 01:51:06;;;;;;;8.63;4.82;;;;;;;19.12;85.30;100775.09;5054704;28;20029;-78
2023/07/12 01:53:33;;;;;;;7.50;5.63;;;;;;;19.12;86.77;100788.59;5044919;28;20061;-78
2023/07/12 01:55:59;;;;;;;7.88;5.68;;;;;;;18.87;83.99;100786.63;5064975;28;20029;-78
2023/07/12 01:58:26;;;;;;;8.98;6.53;;;;;;;18.93;86.03;100773.38;5050983;28;20376;-78
2023/07/12 02:00:52;;;;;;;10.23;6.15;;;;;;;18.86;84.42;100774.16;5058300;28;20032;-78
2023/07/12 02:03:19;;;;;;;8.35;6.93;;;;;;;18.75;84.73;100767.97;5040304;28;20029;-78
2023/07/12 02:05:47;;;;;;;7.22;6.28;;;;;;;18.69;86.17;100782.03;5059861;28;20028;-78
2023/07/12 02:08:13;;;;;;;6.60;5.78;;;;;;;18.76;87.84;100774.22;5047284;28;20025;-79
2023/07/12 02:10:43;;;;;;;11.55;6.68;;;;;;;18.82;87.88;100743.97;5062369;28;20021;-79
2023/07/12 02:13:08;;;;;;;;;;;;;;;19.03;84.43;100727.47;5054200;28;20025;-78
2023/07/12 02:15:33;;;;;;;9.40;6.35;;;;;;;18.49;86.63;100775.06;5066740;28;19921;-79
2023/07/12 02:18:00;;;;;;;10.68;6.65;;;;;;;18.43;87.12;100821.44;5052162;28;20472;-78
2023/07/12 02:20:29;;;;;;;8.70;6.45;;;;;;;18.40;87.80;100817.19;5050589;28;20114;-79
2023/07/12 02:22:54;;;;;;;7.57;5.73;;;;;;;18.45;89.45;100827.53;5049888;28;20043;-79
2023/07/12 02:25:20;;;;;;;9.18;6.20;;;;;;;18.49;87.94;100828.91;5048225;28;20021;-79
2023/07/12 02:27:47;;;;;;;7.82;5.90;;;;;;;18.32;89.38;100823.34;5039193;28;20037;-78
2023/07/12 02:30:19;;;;;;;8.40;6.30;;;;;;;18.34;88.75;100786.31;5048130;28;20025;-78
2023/07/12 02:32:45;;;;;;;7.22;5.30;;;;;;;18.38;88.04;100794.94;5062713;28;20028;-79
2023/07/12 02:35:12;;;;;;;6.57;6.03;;;;;;;18.43;88.16;100799.91;5064808;28;20048;-79
2023/07/12 02:37:37;;;;;;;9.07;5.45;;;;;;;18.35;87.55;100812.28;5091931;28;20276;-79
2023/07/12 02:40:05;;;;;;;7.63;6.13;;;;;;;18.39;88.53;100781.34;5073802;28;20542;-79
2023/07/12 02:42:31;;;;;;;6.25;5.68;;;;;;;18.12;88.13;100805.56;5073360;28;20471;-78
2023/07/12 02:44:56;;;;;;;6.40;5.35;;;;;;;18.00;88.84;100793.25;5107134;28;20016;-79
2023/07/12 02:47:22;;;;;;;6.97;5.45;;;;;;;18.03;88.50;100801.03;5091699;28;20023;-78
2023/07/12 02:49:47;;;;;;;7.53;6.18;;;;;;;18.00;89.19;100802.19;5110582;28;20062;-78
2023/07/12 02:52:13;;;;;;;9.80;6.10;;;;;;;17.98;90.61;100793.41;5095367;28;20039;-78
2023/07/12 02:54:38;;;;;;;7.10;5.50;;;;;;;17.95;89.03;100793.69;5110443;28;20115;-79
2023/07/12 02:57:04;;;;;;;8.02;5.78;;;;;;;17.96;90.24;100811.53;5095860;28;20467;-79
2023/07/12 02:59:32;;;;;;;5.97;5.03;;;;;;;17.88;89.23;100798.81;5095045;28;20047;-78
2023/07/12 03:01:57;;;;;;;8.45;5.53;;;;;;;17.98;90.06;100796.09;5076188;28;20024;-79
2023/07/12 03:04:23;;;;;;;7.90;5.13;;;;;;;18.02;92.66;100807.41;5093959;28;20028;-78
2023/07/12 03:06:51;;;;;;;7.53;4.95;;;;;;;17.92;91.08;100815.53;5104428;28;20056;-78
2023/07/12 03:09:16;;;;;;;6.30;5.00;;;;;;;17.79;90.10;100815.81;5076560;28;20027;-78
2023/07/12 03:11:47;;;;;;;7.25;5.10;;;;;;;17.79;90.72;100815.81;5075686;28;20028;-79
2023/07/12 03:14:17;;;;;;;6.82;4.95;;;;;;;17.77;93.15;100828.53;5075815;28;20115;-78
2023/07/12 03:16:43;;;;;;;7.32;5.60;;;;;;;17.78;91.81;100815.97;5068573;28;20196;-79
2023/07/12 03:19:09;;;;;;;7.55;5.07;;;;;;;17.69;92.08;100833.78;5075756;28;20040;-78
2023/07/12 03:21:34;;;;;;;7.22;4.97;;;;;;;17.74;91.87;100823.44;5094275;28;20028;-79
2023/07/12 03:24:00;;;;;;;6.95;5.57;;;;;;;17.70;93.61;100820.19;5067833;28;20422;-78
2023/07/12 03:26:28;;;;;;;5.95;5.35;;;;;;;17.63;92.07;100823.59;5063806;28;20085;-78
2023/07/12 03:28:58;;;;;;;6.35;5.10;;;;;;;17.62;93.45;100825.44;5106040;28;20085;-78
2023/07/12 03:31:24;;;;;;;8.10;5.53;;;;;;;17.55;93.67;100832.38;5091752;28;20119;-79
2023/07/12 03:33:50;;;;;;;6.68;4.80;;;;;;;17.47;93.11;100829.53;5093768;28;20036;-78
2023/07/12 03:36:21;;;;;;;6.45;5.25;;;;;;;17.44;92.74;100822.63;5068013;28;20380;-79
2023/07/12 03:38:48;;;;;;;6.47;5.40;;;;;;;17.58;92.26;100842.84;5091575;28;20069;-78
2023/07/12 03:41:17;;;;;;;7.50;5.75;;;;;;;17.43;91.79;100836.19;5094680;28;20069;-79
2023/07/12 03:43:45;;;;;;;5.35;4.80;;;;;;;17.40;91.91;100845.41;5093845;28;20032;-79
2023/07/12 03:46:12;;;;;;;7.53;5.50;;;;;;;17.37;92.12;100852.91;5093154;28;20035;-79
2023/07/12 03:48:42;;;;;;;7.88;5.93;;;;;;;17.30;92.70;100860.69;5086953;28;20487;-79
2023/07/12 03:51:10;;;;;;;8.82;6.05;;;;;;;17.32;94.46;100841.72;5092486;28;20024;-79
2023/07/12 03:53:36;;;;;;;7.10;5.65;;;;;;;17.43;93.34;100855.03;5086588;28;20028;-79
2023/07/12 03:56:01;;;;;;;7.05;5.93;;;;;;;17.24;92.71;100858.56;5092092;28;20506;-78
2023/07/12 03:58:30;;;;;;;8.55;5.97;;;;;;;17.14;93.33;100855.00;5074808;28;20384;-79
2023/07/12 04:00:58;;;;;;;6.70;5.40;;;;;;;16.93;93.93;100810.25;5083993;28;20174;-79
2023/07/12 04:03:24;;;;;;;9.45;6.55;;;;;;;17.27;94.96;100847.53;5092713;28;20059;-78
2023/07/12 04:05:52;;;;;;;9.40;6.13;;;;;;;17.18;93.54;100865.34;5062529;28;20047;-78
2023/07/12 04:08:19;;;;;;;8.55;6.88;;;;;;;17.05;92.94;100858.53;5071673;28;20462;-77
2023/07/12 04:10:49;;;;;;;8.32;6.25;;;;;;;17.21;94.00;100859.69;5093557;28;20382;-78
2023/07/12 04:13:16;;;;;;;9.48;6.53;;;;;;;17.11;93.16;100866.03;5092581;28;20056;-78
2023/07/12 04:15:42;;;;;;;8.73;6.32;;;;;;;17.14;92.67;100873.81;5093732;28;20518;-78
2023/07/12 04:18:08;;;;;;;7.60;6.80;;;;;;;17.12;93.40;100875.78;5075303;28;20028;-78
2023/07/12 04:20:38;;;;;;;12.75;7.22;;;;;;;17.05;92.51;100867.44;5076200;28;20197;-79
2023/07/12 04:23:03;;;;;;;7.53;5.50;;;;;;;17.02;93.23;100873.91;5085625;28;20035;-78
2023/07/12 04:25:29;;;;;;;10.77;6.70;;;;;;;16.95;92.62;100866.56;5074571;28;20027;-78
2023/07/12 04:27:54;;;;;;;8.45;6.35;;;;;;;16.93;92.38;100876.59;5075391;28;20425;-78
2023/07/12 04:30:20;;;;;;;10.52;7.10;;;;;;;17.00;94.34;100877.72;5074896;28;20032;-78
2023/07/12 04:32:47;;;;;;;11.05;6.22;;;;;;;16.96;93.31;100863.72;5109318;28;20475;-78
2023/07/12 04:35:14;;;;;;;10.02;5.88;;;;;;;17.01;94.34;100857.94;5105465;28;20496;-78
2023/07/12 04:37:45;;;;;;;8.05;5.65;;;;;;;17.17;94.04;100868.16;5074589;28;20024;-79
2023/07/12 04:40:11;;;;;;;12.88;5.60;;;;;;;17.15;93.60;100860.25;5092812;28;20024;-79
2023/07/12 04:42:36;;;;;;;8.65;5.60;;;;;;;17.19;93.01;100869.72;5076578;28;20039;-79
2023/07/12 04:45:04;;;;;;;7.72;5.55;;;;;;;17.16;93.44;100863.78;5072310;28;20071;-78
2023/07/12 04:47:30;;;;;;;9.48;5.93;;;;;;;16.98;93.57;100848.31;5105543;28;20033;-78
2023/07/12 04:49:55;;;;;;;9.70;5.90;;;;;;;17.01;92.46;100855.25;5072781;28;20031;-78
2023/07/12 04:52:21;;;;;;;7.82;5.40;;;;;;;17.13;93.22;100864.06;5071614;28;20387;-78
2023/07/12 04:54:46;;;;;;;11.02;5.93;;;;;;;17.22;93.30;100863.22;5071034;28;20032;-78
2023/07/12 04:57:12;;;;;;;8.25;6.05;;;;;;;17.20;93.54;100878.63;5071178;28;20095;-78
2023/07/12 04:59:37;;;;;;;8.98;5.45;;;;;;;17.27;92.84;100868.19;5072385;28;20032;-78
2023/07/12 05:02:03;;;;;;;13.43;5.97;;;;;;;17.21;93.00;100877.66;5088281;28;20090;-78
2023/07/12 05:04:28;;;;;;;7.65;5.40;;;;;;;17.13;92.89;100872.97;5070831;28;20036;-78
2023/07/12 05:06:54;;;;;;;11.20;5.55;;;;;;;17.09;92.34;100866.19;5072381;28;20033;-79
2023/07/12 05:09:20;;;;;;;9.55;5.35;;;;;;;17.16;92.21;100874.53;5072149;28;20383;-78
2023/07/12 05:11:49;;;;;;;7.28;5.45;;;;;;;17.19;93.32;100880.47;5071741;28;20052;-78
2023/07/12 05:14:15;;;;;;;7.43;5.38;;;;;;;17.19;92.43;100890.38;5072467;28;20067;-78
2023/07/12 05:16:40;;;;;;;7.88;5.18;;;;;;;17.16;92.03;100883.44;5071971;28;20056;-78
2023/07/12 05:19:06;;;;;;;9.90;6.20;;;;;;;17.38;92.05;100892.22;5070964;28;20069;-79
2023/07/12 05:21:32;;;;;;;8.68;5.38;;;;;;;17.34;90.94;100891.66;5071016;28;20432;-78
2023/07/12 05:23:57;;;;;;;12.75;6.03;;;;;;;17.20;90.76;100886.69;5071467;28;20086;-79
2023/07/12 05:26:23;;;;;;;11.88;6.32;;;;;;;17.28;90.55;100905.66;5070740;28;20096;-79
2023/07/12 05:28:48;;;;;;;10.30;5.97;;;;;;;17.30;92.05;100908.25;5070525;28;20107;-78
2023/07/12 05:31:19;;;;;;;11.13;6.05;;;;;;;17.34;92.95;100915.88;5071689;28;20361;-78
2023/07/12 05:33:47;;;;;;;10.73;5.75;;;;;;;17.34;91.50;100906.94;5072446;28;20025;-78
2023/07/12 05:36:14;;;;;;;8.30;6.07;;;;;;;17.28;90.79;100900.28;5088793;28;20045;-79
2023/07/12 05:38:40;;;;;;;11.95;6.20;;;;;;;17.25;90.48;100895.19;5051386;28;20025;-78
2023/07/12 05:41:06;;;;;;;9.73;6.35;;;;;;;17.33;91.51;100900.72;5052354;28;20384;-79
2023/07/12 05:43:33;;;;;;;8.88;5.75;;;;;;;17.45;90.70;100891.53;5051035;28;20021;-78
2023/07/12 05:45:59;;;;;;;8.50;5.18;;;;;;;17.39;91.03;100892.09;5056596;28;20013;-79
2023/07/12 05:48:25;;;;;;;8.80;6.32;;;;;;;17.54;91.10;100908.69;5057558;28;20411;-78
2023/07/12 05:50:52;;;;;;;9.82;6.20;;;;;;;17.47;90.44;100907.53;5051182;28;20024;-77
2023/07/12 05:53:17;;;;;;;10.43;5.97;;;;;;;17.49;89.75;100901.03;5051378;28;20112;-78
2023/07/12 05:55:43;;;;;;;11.40;6.50;;;;;;;17.55;89.77;100904.16;5050626;28;20119;-78
2023/07/12 05:58:08;;;;;;;8.63;5.70;;;;;;;17.61;90.47;100900.88;5052456;28;20086;-79
2023/07/12 06:00:36;;;;;;;12.02;7.20;;;;;;;17.68;91.07;100912.81;5050991;28;20028;-78
2023/07/12 06:03:02;;;;;;;11.35;6.43;;;;;;;17.70;87.65;100930.47;5050893;28;20050;-78
2023/07/12 06:05:27;;;;;;;10.60;6.05;;;;;;;17.77;87.15;100920.03;5032034;28;20457;-78
2023/07/12 06:07:55;;;;;;;8.40;5.95;;;;;;;17.77;88.66;100909.25;5063960;28;20028;-78
2023/07/12 06:10:20;;;;;;;7.78;5.25;;;;;;;17.96;89.83;100923.72;5052394;28;20024;-78
2023/07/12 06:12:48;;;;;;;9.57;5.78;;;;;;;18.16;87.15;100933.47;5054256;28;20450;-79
2023/07/12 06:15:16;;;;;;;10.32;6.10;;;;;;;17.99;87.08;100900.06;5052130;28;20037;-78
2023/07/12 06:17:43;;;;;;;10.82;5.93;;;;;;;17.92;86.44;100902.47;5052753;28;20499;-78
2023/07/12 06:20:08;;;;;;;11.63;6.32;;;;;;;18.09;87.31;100932.38;5053164;28;20025;-78
2023/07/12 06:22:34;;;;;;;12.98;5.93;;;;;;;17.92;86.46;100902.47;5053273;28;20028;-78
2023/07/12 06:25:02;;;;;;;8.55;5.97;;;;;;;18.14;87.12;100936.28;5056132;28;20415;-79
2023/07/12 06:27:30;;;;;;;10.35;5.95;;;;;;;17.99;86.39;100932.34;5053328;28;20123;-78
2023/07/12 06:29:55;;;;;;;12.63;6.13;;;;;;;18.00;88.17;100919.75;5047386;28;20036;-78
2023/07/12 06:32:20;;;;;;;10.70;6.07;;;;;;;17.93;86.67;100932.91;5064884;28;20029;-78
2023/07/12 06:34:46;;;;;;;12.30;6.53;;;;;;;18.10;84.73;100945.66;5061599;28;20127;-78
2023/07/12 06:37:11;;;;;;;10.73;5.63;;;;;;;18.21;85.24;100955.44;5095634;28;20567;-78
2023/07/12 06:39:37;;;;;;;10.80;5.65;;;;;;;18.10;87.21;100948.34;5095470;28;20036;-77
2023/07/12 06:42:03;;;;;;;12.85;6.95;;;;;;;18.16;85.16;100968.47;5111864;28;20024;-78
2023/07/12 06:44:30;;;;;;;11.98;7.03;;;;;;;18.12;84.52;100972.44;5095597;28;20016;-77
2023/07/12 06:46:58;;;;;;;13.13;6.72;;;;;;;18.01;87.69;100959.13;5090747;28;20028;-77
2023/07/12 06:49:24;;;;;;;13.75;5.80;;;;;;;18.02;84.22;100963.50;5095001;28;20432;-78
2023/07/12 06:51:49;;;;;;;10.85;5.60;;;;;;;18.05;83.58;100961.38;5093799;28;20020;-77
2023/07/12 06:54:16;;;;;;;10.77;5.93;;;;;;;18.19;85.03;100980.81;5076995;28;20043;-77
2023/07/12 06:56:42;;;;;;;12.52;6.13;;;;;;;17.82;83.48;100939.28;5077117;28;20119;-78
2023/07/12 06:59:10;;;;;;;11.05;6.88;;;;;;;18.12;85.21;100977.84;5095297;28;20032;-77
2023/07/12 07:01:38;;;;;;;9.90;5.82;;;;;;;18.29;85.17;101000.47;5110912;28;20115;-77
2023/07/12 07:04:06;;;;;;;11.80;6.15;;;;;;;18.28;86.14;101002.31;5095244;28;20063;-77
2023/07/12 07:06:34;;;;;;;15.20;6.07;;;;;;;18.35;84.22;100999.91;5077412;28;20019;-77
2023/07/12 07:09:02;;;;;;;10.63;5.78;;;;;;;18.43;83.77;101004.56;5091890;28;20087;-77
2023/07/12 07:11:27;;;;;;;10.73;5.43;;;;;;;18.44;82.21;101001.72;5067968;28;20022;-77
2023/07/12 07:13:53;;;;;;;6.93;4.80;;;;;;;18.49;82.57;100993.22;5094801;28;20032;-77
2023/07/12 07:16:18;;;;;;;9.98;5.05;;;;;;;18.65;83.32;101000.69;5100776;28;20086;-77
2023/07/12 07:18:44;;;;;;;10.98;5.68;;;;;;;18.60;81.09;101001.16;5089889;28;20031;-77
2023/07/12 07:21:10;;;;;;;12.85;5.55;;;;;;;18.68;80.25;100997.72;5095237;28;20356;-77
2023/07/12 07:23:35;;;;;;;10.93;5.78;;;;;;;18.83;80.05;100993.59;5073009;28;20387;-77
2023/07/12 07:26:06;;;;;;;11.63;6.32;;;;;;;18.89;79.74;101008.34;5076586;28;20027;-78
2023/07/12 07:28:32;;;;;;;10.82;5.75;;;;;;;19.00;78.63;101021.63;5094805;28;20535;-77
2023/07/12 07:31:00;;;;;;;11.20;5.30;;;;;;;18.92;78.95;101021.53;5076740;28;20055;-77
2023/07/12 07:33:27;;;;;;;9.50;5.30;;;;;;;18.81;79.00;101034.16;5095689;28;20028;-78
2023/07/12 07:35:56;;;;;;;10.10;5.88;;;;;;;18.72;79.27;101024.22;5094356;28;20426;-77
2023/07/12 07:38:26;;;;;;;9.38;5.53;;;;;;;18.75;77.34;101034.75;5110692;28;20061;-78
2023/07/12 07:40:55;;;;;;;10.32;5.45;;;;;;;18.68;78.20;101033.63;5110877;28;20028;-78
2023/07/12 07:43:21;;;;;;;7.45;4.65;;;;;;;18.78;80.20;101045.22;5094471;28;20047;-78
2023/07/12 07:45:46;;;;;;;12.43;5.35;;;;;;;19.01;79.08;101034.13;5110496;28;20028;-77
2023/07/12 07:48:14;;;;;;;11.95;5.28;;;;;;;19.13;76.91;101040.19;5110275;28;20031;-78
2023/07/12 07:50:42;;;;;;;12.43;5.15;;;;;;;19.13;78.33;101034.78;5109979;28;20031;-78
2023/07/12 07:53:11;;;;;;;12.93;5.40;;;;;;;19.25;76.42;101022.81;5094478;28;20027;-78
2023/07/12 07:55:42;;;;;;;13.75;5.60;;;;;;;19.25;76.86;101036.28;5093977;28;20056;-78
2023/07/12 07:58:10;;;;;;;10.95;5.38;;;;;;;19.26;75.15;101043.38;5094468;28;20024;-78
2023/07/12 08:00:36;;;;;;;11.98;5.07;;;;;;;19.33;76.29;101038.25;5094348;28;20073;-78
2023/07/12 08:03:04;;;;;;;11.02;5.32;;;;;;;19.33;76.22;101059.84;5094021;28;20387;-78
2023/07/12 08:05:29;;;;;;;11.57;5.53;;;;;;;19.28;75.36;101052.19;5094091;28;20031;-78
2023/07/12 08:07:58;;;;;;;11.35;4.93;;;;;;;19.13;74.56;101059.06;5094175;28;20055;-77
2023/07/12 08:10:24;;;;;;;10.90;4.50;;;;;;;19.00;74.99;101065.63;5109785;28;20031;-77
2023/07/12 08:12:51;;;;;;;13.90;5.97;;;;;;;18.94;75.78;101057.25;5094070;28;20445;-78
2023/07/12 08:15:22;;;;;;;11.63;5.60;;;;;;;18.91;75.65;101054.84;5076381;28;20486;-78
2023/07/12 08:17:50;;;;;;;11.18;5.05;;;;;;;18.88;76.59;101052.44;5093964;28;20368;-78
2023/07/12 08:20:16;;;;;;;10.82;5.80;;;;;;;18.93;76.38;101064.50;5094233;28;20025;-78
2023/07/12 08:22:42;;;;;;;11.20;5.45;;;;;;;18.91;75.33;101077.25;5093849;28;20024;-78
2023/07/12 08:25:08;;;;;;;10.90;5.90;;;;;;;18.79;75.52;101063.09;5075223;28;20046;-78
2023/07/12 08:27:39;;;;;;;13.77;5.97;;;;;;;18.89;75.91;101073.03;5075946;28;20028;-78
2023/07/12 08:30:08;;;;;;;12.52;5.75;;;;;;;18.91;76.11;101066.47;5093913;28;20024;-78
2023/07/12 08:32:34;;;;;;;9.77;6.10;;;;;;;18.93;75.20;101063.66;5088978;28;20043;-78
2023/07/12 08:35:03;;;;;;;8.95;5.15;;;;;;;19.03;76.11;101075.25;5073330;28;20446;-78
2023/07/12 08:37:29;;;;;;;12.05;5.38;;;;;;;19.03;77.13;101072.53;5055418;28;20052;-79
2023/07/12 08:39:57;;;;;;;13.60;5.15;;;;;;;19.11;76.81;101069.13;5071723;28;20126;-78
2023/07/12 08:42:31;;;;;;;12.63;5.15;;;;;;;19.25;77.08;101076.75;5075704;28;20376;-78
2023/07/12 08:45:02;;;;;;;16.85;6.10;;;;;;;19.25;75.37;101077.59;5092900;28;20475;-78
2023/07/12 08:47:35;;;;;;;10.90;5.57;;;;;;;19.19;75.89;101067.41;5074865;28;20024;-78
2023/07/12 08:50:10;;;;;;;12.93;5.78;;;;;;;19.31;75.16;101073.47;5074915;28;20020;-78
2023/07/12 08:52:35;;;;;;;13.25;5.57;;;;;;;19.41;74.68;101078.81;5092125;28;20109;-78
2023/07/12 08:55:02;;;;;;;10.38;5.15;;;;;;;19.67;73.91;101089.78;5093086;28;20467;-78
2023/07/12 08:57:33;;;;;;;9.95;5.05;;;;;;;19.87;72.08;101090.53;5075103;28;20475;-78
2023/07/12 09:00:08;;;;;;;9.73;5.15;;;;;;;19.90;71.55;101087.53;5091995;28;20020;-78
2023/07/12 09:02:39;;;;;;;7.60;4.82;;;;;;;19.79;71.24;101095.84;5074923;28;20032;-78
2023/07/12 09:05:13;;;;;;;10.60;5.22;;;;;;;19.83;70.67;101090.00;5109208;28;20482;-78
2023/07/12 09:07:56;;;;;;;11.75;5.28;;;;;;;20.14;69.81;101085.09;5093096;28;20070;-78
2023/07/12 09:10:39;;;;;;;8.25;4.43;;;;;;;20.31;68.93;101086.09;5102162;28;20101;-78
2023/07/12 09:13:09;;;;;;;12.68;5.05;;;;;;;20.53;68.86;101092.94;5088520;28;20540;-78
2023/07/12 09:15:43;;;;;;;11.13;4.35;;;;;;;20.68;66.37;101095.94;5072783;28;20029;-79
2023/07/12 09:18:26;;;;;;;10.35;4.72;;;;;;;20.57;66.26;101079.97;5073091;28;20038;-78
2023/07/12 09:20:51;;;;;;;9.95;5.55;;;;;;;20.46;66.52;101077.47;5095300;28;20016;-79
2023/07/12 09:23:17;;;;;;;9.90;4.93;;;;;;;20.61;66.88;101076.78;5074608;28;20424;-78
2023/07/12 09:25:52;;;;;;;8.90;4.80;;;;;;;20.72;68.26;101078.38;5108882;28;20376;-78
2023/07/12 09:28:17;;;;;;;12.30;5.55;;;;;;;20.69;66.19;101070.59;5092692;28;20027;-78
2023/07/12 09:30:43;;;;;;;10.40;5.50;;;;;;;20.81;64.69;101082.84;5097898;28;20024;-78
2023/07/12 09:33:18;;;;;;;9.80;4.63;;;;;;;21.09;64.76;101088.97;5088298;28;20111;-78
2023/07/12 09:35:45;;;;;;;11.15;4.28;;;;;;;21.53;65.89;101067.25;5054461;28;20052;-78
2023/07/12 09:38:22;;;;;;;9.70;4.28;;;;;;;21.56;63.39;101063.38;5054424;28;20021;-78
2023/07/12 09:40:51;;;;;;;10.18;4.20;;;;;;;21.70;64.34;101078.13;5089257;28;20031;-77
2023/07/12 09:43:27;;;;;;;11.20;4.75;;;;;;;21.62;62.95;101088.91;5054483;28;20024;-78
2023/07/12 09:46:23;;;;;;;15.30;4.50;;;;;;;21.41;62.60;101071.22;5054645;28;20108;-78
2023/07/12 09:48:55;;;;;;;10.45;4.25;;;;;;;21.27;63.83;101083.50;5072478;28;20020;-78
2023/07/12 09:51:23;;;;;;;9.27;4.25;;;;;;;21.40;62.91;101079.53;5090982;28;20030;-78
2023/07/12 09:54:06;;;;;;;10.82;4.40;;;;;;;21.35;62.11;101043.94;5092032;28;20038;-78
2023/07/12 09:57:00;;;;;;;10.23;4.20;;;;;;;21.58;61.58;101065.91;5074714;28;20478;-78
2023/07/12 09:59:47;;;;;;;8.68;3.60;;;;;;;21.38;60.41;101052.59;5070566;28;20035;-78
2023/07/12 10:02:34;;;;;;;10.95;3.45;;;;;;;21.77;61.20;101058.34;5072222;28;20502;-78
2023/07/12 10:05:10;;;;;;;14.63;3.95;;;;;;;21.95;61.01;101055.53;5054615;28;20024;-78
2023/07/12 10:07:47;;;;;;;9.75;3.60;;;;;;;;;;5072701;28;20035;-78
2023/07/12 10:10:24;;;;;;;11.10;3.92;;;;;;;22.40;57.38;101039.84;5072193;28;20039;-77
2023/07/12 10:13:06;;;;;;;11.93;3.80;;;;;;;22.43;56.99;101034.94;5071198;28;20027;-77
2023/07/12 10:15:38;;;;;;;12.95;3.95;;;;;;;22.61;58.40;101056.44;5092745;28;20028;-77
2023/07/12 10:18:05;;;;;;;8.65;4.20;;;;;;;22.84;55.60;101058.47;5093633;28;20039;-78
2023/07/12 10:20:31;;;;;;;10.32;3.97;;;;;;;22.86;55.85;101060.00;5074775;28;20027;-78
2023/07/12 10:23:00;;;;;;;8.07;3.67;;;;;;;22.94;55.54;101045.53;5108717;28;20043;-78
2023/07/12 10:25:37;;;;;;;12.05;3.67;;;;;;;23.36;54.88;101066.16;5108803;28;20054;-78
2023/07/12 10:28:08;;;;;;;19.67;4.43;;;;;;;23.53;55.00;101064.22;5092659;28;20032;-78
2023/07/12 10:30:34;;;;;;;10.40;3.20;;;;;;;23.35;54.32;101068.03;5092074;28;20028;-78
2023/07/12 10:33:12;;;;;;;10.35;3.60;;;;;;;23.23;53.84;101047.69;5092588;28;20032;-79
2023/07/12 10:35:44;;;;;;;13.68;3.72;;;;;;;23.45;53.68;101067.81;5090657;28;20036;-78
2023/07/12 10:38:13;;;;;;;12.55;3.67;;;;;;;23.56;53.44;101072.03;5075507;28;20055;-78
2023/07/12 10:40:49;;;;;;;24.00;4.68;;;;;;;23.61;54.01;101064.19;5074314;28;20038;-79
2023/07/12 10:43:37;;;;;;;12.10;3.45;;;;;;;23.69;53.75;101058.72;5074327;28;20048;-78
2023/07/12 10:46:07;;;;;;;8.82;3.55;;;;;;;23.65;51.75;101067.38;5074424;28;20101;-79
2023/07/12 10:48:42;;;;;;;8.00;3.40;;;;;;;23.76;51.71;101070.59;5091916;28;20022;-78
2023/07/12 10:51:26;;;;;;;14.18;3.95;;;;;;;23.96;52.90;101078.31;5074425;28;20042;-78
2023/07/12 10:53:55;;;;;;;9.93;3.30;;;;;;;23.98;51.24;101078.97;5091812;28;20016;-78
2023/07/12 10:56:25;;;;;;;12.70;4.32;;;;;;;23.84;52.30;101079.75;5107769;28;20082;-78
2023/07/12 10:58:56;;;;;;;9.32;3.13;;;;;;;23.70;51.72;101086.75;5107873;28;20055;-79
2023/07/12 11:01:45;;;;;;;11.30;3.42;;;;;;;23.39;51.98;101064.97;5074078;28;20380;-78
2023/07/12 11:04:37;;;;;;;9.07;3.10;;;;;;;23.43;52.29;101071.75;5092331;28;20016;-78
2023/07/12 11:07:04;;;;;;;14.80;4.20;;;;;;;23.21;52.60;101071.47;5075388;28;20020;-78
2023/07/12 11:12:33;;;;;;;15.85;3.92;;;;;;;23.17;52.70;101072.81;5095771;28;20454;-79
2023/07/12 11:15:22;;;;;;;12.70;3.58;;;;;;;23.56;53.28;101072.88;5077627;28;20020;-78
2023/07/12 11:18:21;;;;;;;9.85;3.17;;;;;;;23.89;51.39;101072.75;5077803;28;20035;-78
2023/07/12 11:20:58;;;;;;;10.60;3.20;;;;;;;24.01;50.78;101056.88;5077334;28;20024;-78
2023/07/12 11:23:31;;;;;;;12.57;3.40;;;;;;;23.88;50.67;101065.59;5110655;28;20036;-79
2023/07/12 11:26:02;;;;;;;7.72;2.70;;;;;;;24.09;51.24;101066.84;5095327;28;20425;-78
2023/07/12 11:28:44;;;;;;;9.35;3.15;;;;;;;24.37;49.45;101065.28;5076606;28;20067;-79
2023/07/12 11:31:29;;;;;;;11.65;2.75;;;;;;;24.70;48.58;101075.91;5095649;28;20020;-79
2023/07/12 11:34:05;;;;;;;9.20;3.08;;;;;;;24.68;48.08;101065.22;5077135;28;20027;-79